Time;durP1;ratioP1;P1;durP2;ratioP2;P2;SDS_P1;SDS_P2;PMS_P1;PMS_P2;Temp;Humidity;BMP_temperature;BMP_pressure;BME280_temperature;BME280_humidity;BME280_pressure;Samples;Min_cycle;Max_cycle;Signal;HPM_P1;HPM_P2
2023/07/05 00:04:45;;;;;;;3.67;1.27;;;;;;;19.27;54.20;99253.16;10383484;28;20160;-58
2023/07/05 00:09:47;;;;;;;1.83;1.10;;;;;;;19.31;54.50;99255.31;10384057;28;20637;-58
2023/07/05 00:14:49;;;;;;;2.28;1.48;;;;;;;19.04;55.31;99242.31;10385419;28;20506;-58
2023/07/05 00:19:53;;;;;;;2.60;1.15;;;;;;;19.07;56.01;99247.31;10381694;28;20057;-58
2023/07/05 00:24:55;;;;;;;3.15;1.40;;;;;;;18.97;56.13;99233.31;10383494;28;20057;-58
2023/07/05 00:29:58;;;;;;;2.45;1.33;;;;;;;18.83;56.77;99218.03;10384869;28;20045;-58
2023/07/05 00:35:00;;;;;;;4.55;1.20;;;;;;;18.61;57.50;99203.56;10380446;28;20049;-58
2023/07/05 00:40:02;;;;;;;1.95;1.15;;;;;;;18.47;57.53;99200.69;10366661;28;20050;-58
2023/07/05 00:45:10;;;;;;;2.05;1.20;;;;;;;18.63;59.88;99187.50;10390693;28;20034;-58
2023/07/05 00:50:24;;;;;;;3.38;1.63;;;;;;;18.69;58.38;99192.16;10390580;28;20089;-58
2023/07/05 00:55:27;;;;;;;3.30;1.63;;;;;;;18.50;58.71;99180.00;10388224;28;20041;-58
2023/07/05 01:00:30;;;;;;;3.67;1.52;;;;;;;18.29;58.94;99181.41;10388008;28;20144;-59
2023/07/05 01:05:33;;;;;;;2.47;1.40;;;;;;;18.28;59.07;99174.50;10389131;28;20042;-58
2023/07/05 01:10:35;;;;;;;3.70;1.80;;;;;;;18.30;59.78;99162.72;10386221;28;20041;-58
2023/07/05 01:16:02;;;;;;;3.88;1.30;;;;;;;18.33;61.83;99161.59;10388003;28;20057;-58
2023/07/05 01:21:32;;;;;;;2.92;1.38;;;;;;;18.23;61.41;99152.94;10367120;28;20202;-58
2023/07/05 01:26:43;;;;;;;4.13;1.37;;;;;;;18.08;60.85;99154.47;10404361;28;20049;-59
2023/07/05 01:31:57;;;;;;;2.10;1.10;;;;;;;17.98;62.38;99144.03;10387584;28;20089;-58
2023/07/05 01:36:59;;;;;;;2.30;1.10;;;;;;;17.93;60.54;99134.91;10387415;28;20077;-58
2023/07/05 01:42:03;;;;;;;2.53;1.20;;;;;;;17.96;60.78;99121.34;10386425;28;20049;-58
2023/07/05 01:47:16;;;;;;;1.48;1.20;;;;;;;18.10;62.11;99115.47;10358616;28;20049;-58
2023/07/05 01:52:32;;;;;;;1.85;1.20;;;;;;;18.06;61.86;99122.88;10383769;28;20091;-58
2023/07/05 01:57:43;;;;;;;2.28;1.15;;;;;;;17.89;61.31;99128.28;10383841;28;20053;-59
2023/07/05 02:03:01;;;;;;;1.58;0.93;;;;;;;17.87;62.06;99119.66;10387696;28;20132;-58
2023/07/05 02:08:06;;;;;;;2.17;1.13;;;;;;;17.63;62.00;99131.75;10391291;28;20524;-58
2023/07/05 02:13:10;;;;;;;1.23;0.90;;;;;;;17.55;61.65;99126.41;10394292;28;20057;-59
2023/07/05 02:18:13;;;;;;;1.35;0.90;;;;;;;17.59;61.51;99111.88;10387048;28;20160;-58
2023/07/05 02:23:15;;;;;;;1.60;1.00;;;;;;;17.82;61.25;99114.84;10393211;28;20092;-58
2023/07/05 02:28:17;;;;;;;1.63;1.13;;;;;;;17.78;61.24;99103.75;10391354;28;20045;-59
2023/07/05 02:33:19;;;;;;;0.82;0.80;;;;;;;17.96;61.35;99094.88;10391825;28;20413;-58
2023/07/05 02:38:21;;;;;;;2.28;1.55;;;;;;;18.08;61.71;99090.97;10389957;28;20643;-58
2023/07/05 02:43:23;;;;;;;1.30;0.93;;;;;;;18.06;61.81;99083.19;10393394;28;20055;-58
2023/07/05 02:48:25;;;;;;;1.17;0.90;;;;;;;17.91;61.81;99076.88;10389568;28;20047;-59
2023/07/05 02:53:27;;;;;;;1.23;0.77;;;;;;;17.84;62.00;99065.25;10407064;28;20519;-59
2023/07/05 02:58:29;;;;;;;1.42;0.90;;;;;;;17.69;62.25;99043.00;10403659;28;20063;-58
2023/07/05 03:03:31;;;;;;;1.63;1.00;;;;;;;17.76;62.00;99036.13;10386177;28;20148;-58
2023/07/05 03:08:33;;;;;;;1.00;0.90;;;;;;;17.79;61.80;99028.69;10385319;28;20071;-58
2023/07/05 03:13:36;;;;;;;1.75;0.98;;;;;;;17.86;62.08;99034.19;10382299;28;20059;-58
2023/07/05 03:18:38;;;;;;;1.77;1.10;;;;;;;17.95;61.65;99043.81;10383616;28;20070;-58
2023/07/05 03:23:40;;;;;;;0.82;0.80;;;;;;;17.93;62.11;99040.50;10383103;28;20512;-58
2023/07/05 03:28:42;;;;;;;1.38;0.98;;;;;;;17.83;62.30;99042.44;10382055;28;20060;-58
2023/07/05 03:33:44;;;;;;;1.77;0.90;;;;;;;17.90;62.07;99045.25;10371113;28;20494;-58
2023/07/05 03:38:50;;;;;;;1.95;1.17;;;;;;;17.85;62.24;99049.22;10382169;28;20045;-58
2023/07/05 03:43:55;;;;;;;2.33;1.15;;;;;;;17.85;61.88;99051.84;10381271;28;20161;-58
2023/07/05 03:48:56;;;;;;;2.97;1.15;;;;;;;18.02;61.75;99063.34;10385169;28;20037;-58
2023/07/05 03:53:58;;;;;;;1.38;1.00;;;;;;;18.01;61.86;99061.69;10382935;28;20056;-59
2023/07/05 03:59:01;;;;;;;3.33;1.33;;;;;;;18.17;61.24;99084.75;10382589;28;22222;-58
2023/07/05 04:04:03;;;;;;;2.47;1.20;;;;;;;18.25;60.33;99082.16;10384469;28;20045;-58
2023/07/05 04:09:05;;;;;;;1.42;0.70;;;;;;;18.21;60.81;99100.19;10384466;28;20052;-58
2023/07/05 04:14:07;;;;;;;1.73;0.77;;;;;;;18.07;62.40;99113.16;10382126;28;20922;-58
2023/07/05 04:19:09;;;;;;;1.33;0.88;;;;;;;18.02;62.00;99110.13;10392593;28;20073;-58
2023/07/05 04:24:11;;;;;;;1.48;0.90;;;;;;;18.15;61.39;99123.75;10389420;28;20160;-58
2023/07/05 04:29:13;;;;;;;1.77;1.13;;;;;;;18.05;61.70;99121.25;10392842;28;20049;-58
2023/07/05 04:34:16;;;;;;;1.92;1.00;;;;;;;18.60;60.80;99126.94;10386862;28;20243;-59
2023/07/05 04:39:18;;;;;;;1.00;0.77;;;;;;;18.28;60.27;99132.13;10392407;28;20053;-58
2023/07/05 04:44:20;;;;;;;1.50;0.88;;;;;;;18.10;59.81;99152.50;10391237;28;21035;-58
2023/07/05 04:49:23;;;;;;;1.15;0.75;;;;;;;17.83;60.22;99154.34;10391179;28;20088;-58
2023/07/05 04:54:25;;;;;;;1.27;0.82;;;;;;;17.71;59.78;99150.31;10405274;28;20485;-58
2023/07/05 04:59:28;;;;;;;1.52;1.00;;;;;;;17.84;59.83;99150.72;10389734;28;20527;-58
2023/07/05 05:04:30;;;;;;;2.97;0.90;;;;;;;18.02;59.79;99168.34;10387427;28;20128;-58
2023/07/05 05:09:32;;;;;;;1.70;0.90;;;;;;;18.65;58.50;99170.47;10388423;28;20052;-58
2023/07/05 05:14:34;;;;;;;1.02;0.75;;;;;;;18.88;56.93;99183.94;10387338;28;20120;-58
2023/07/05 05:19:37;;;;;;;1.80;1.05;;;;;;;19.77;54.42;99200.78;10388104;28;20107;-58
2023/07/05 05:24:39;;;;;;;2.72;1.20;;;;;;;21.01;51.13;99210.69;10389648;28;20068;-58
2023/07/05 05:29:42;;;;;;;2.55;0.90;;;;;;;21.16;49.77;99214.25;10386005;28;20045;-58
2023/07/05 05:34:44;;;;;;;2.47;1.15;;;;;;;20.15;49.84;99233.78;10387505;28;20148;-58
2023/07/05 05:39:46;;;;;;;2.85;1.20;;;;;;;20.18;47.92;99247.53;10387025;28;20107;-58
2023/07/05 05:44:48;;;;;;;2.13;1.10;;;;;;;19.32;48.66;99262.25;10387672;28;20041;-58
2023/07/05 05:49:50;;;;;;;3.33;1.30;;;;;;;18.96;48.57;99266.13;10387480;28;20465;-58
2023/07/05 05:54:52;;;;;;;3.15;1.40;;;;;;;18.76;47.97;99279.78;10388474;28;20051;-58
2023/07/05 05:59:54;;;;;;;3.67;1.50;;;;;;;18.50;47.06;99285.13;10386632;28;20057;-58
2023/07/05 06:04:56;;;;;;;3.03;1.30;;;;;;;18.78;46.51;99283.94;10386742;28;20053;-58
2023/07/05 06:09:58;;;;;;;3.20;1.30;;;;;;;18.86;45.49;99291.06;10388701;28;20144;-58
2023/07/05 06:15:00;;;;;;;2.55;1.40;;;;;;;18.64;45.48;99297.78;10371799;28;20123;-58
2023/07/05 06:20:03;;;;;;;3.58;1.50;;;;;;;19.14;45.00;99298.66;10388092;28;20045;-58
2023/07/05 06:25:06;;;;;;;3.30;1.48;;;;;;;19.00;44.16;99319.63;10387661;28;20049;-58
2023/07/05 06:30:08;;;;;;;2.00;1.30;;;;;;;18.90;43.42;99319.75;10389057;28;20037;-59
2023/07/05 06:35:11;;;;;;;2.63;1.10;;;;;;;19.08;43.62;99323.16;10385907;28;20042;-59
2023/07/05 06:40:13;;;;;;;2.70;1.50;;;;;;;19.37;43.54;99333.38;10384097;28;20053;-58
2023/07/05 06:45:15;;;;;;;2.60;1.10;;;;;;;19.02;42.39;99342.38;10379433;28;20080;-58
2023/07/05 06:50:17;;;;;;;3.45;1.30;;;;;;;19.26;42.65;99350.41;10380819;28;20045;-58
2023/07/05 06:55:19;;;;;;;3.30;1.20;;;;;;;19.08;42.59;99376.19;10376902;28;20053;-58
2023/07/05 07:00:23;;;;;;;2.60;1.13;;;;;;;18.48;40.13;99383.22;10379729;28;20045;-59
2023/07/05 07:05:25;;;;;;;2.92;1.30;;;;;;;18.86;41.83;99397.91;10364218;28;20671;-59
2023/07/05 07:10:27;;;;;;;1.85;0.93;;;;;;;19.25;40.22;99393.81;10365248;28;21786;-58
2023/07/05 07:15:29;;;;;;;3.75;1.33;;;;;;;18.40;39.90;99411.50;10379474;28;20041;-59
2023/07/05 07:20:31;;;;;;;2.15;1.10;;;;;;;18.57;41.03;99413.25;10377507;28;20409;-58
2023/07/05 07:25:33;;;;;;;1.85;1.00;;;;;;;18.60;40.56;99418.25;10378259;28;20107;-58
2023/07/05 07:30:35;;;;;;;3.03;1.30;;;;;;;18.62;40.25;99403.06;10379878;28;20477;-58
2023/07/05 07:35:37;;;;;;;3.15;1.30;;;;;;;19.39;39.99;99402.97;10372343;28;20051;-60
2023/07/05 07:40:40;;;;;;;1.67;0.90;;;;;;;20.39;38.32;99395.72;10379919;28;21909;-60
2023/07/05 07:45:42;;;;;;;3.08;1.17;;;;;;;20.10;38.47;99403.34;10375630;28;20041;-59
2023/07/05 07:50:50;;;;;;;2.22;1.02;;;;;;;19.70;37.84;99393.47;10379586;28;20042;-59
2023/07/05 07:55:53;;;;;;;1.75;0.90;;;;;;;21.76;37.24;99392.69;10376890;28;20180;-59
2023/07/05 08:00:55;;;;;;;1.95;1.13;;;;;;;22.88;35.06;99409.59;10381718;28;20136;-59
2023/07/05 08:05:57;;;;;;;3.72;1.00;;;;;;;23.74;31.92;99409.75;10373023;28;20042;-60
2023/07/05 08:11:00;;;;;;;2.70;1.27;;;;;;;23.58;33.47;99407.31;10378183;28;20064;-60
2023/07/05 08:16:03;;;;;;;1.95;1.00;;;;;;;22.22;33.68;99428.16;10361572;28;20060;-60
2023/07/05 08:21:05;;;;;;;2.28;0.77;;;;;;;21.26;34.78;99432.09;10378492;28;20146;-60
2023/07/05 08:26:07;;;;;;;1.42;0.80;;;;;;;20.47;35.95;99437.38;10345949;28;20052;-59
2023/07/05 08:31:10;;;;;;;1.27;0.80;;;;;;;19.79;36.91;99469.44;10368376;28;20061;-59
2023/07/05 08:36:12;;;;;;;2.42;1.00;;;;;;;20.98;36.44;99452.97;10376251;28;20521;-60
2023/07/05 08:41:46;;;;;;;0.88;0.80;;;;;;;22.95;32.41;99434.53;10378724;28;20091;-60
2023/07/05 08:46:56;;;;;;;1.67;0.98;;;;;;;24.02;31.36;99440.03;10372517;28;20490;-59
2023/07/05 08:51:59;;;;;;;2.35;1.00;;;;;;;24.32;31.45;99451.50;10393699;28;20420;-60
2023/07/05 08:57:10;;;;;;;1.80;1.00;;;;;;;22.72;32.51;99464.91;10377610;28;20157;-59
2023/07/05 09:02:16;;;;;;;1.70;0.88;;;;;;;21.78;33.94;99473.19;10383243;28;20624;-61
2023/07/05 09:07:30;;;;;;;0.85;0.80;;;;;;;21.26;34.40;99474.66;10383811;28;20045;-60
2023/07/05 09:12:42;;;;;;;1.75;0.90;;;;;;;20.72;35.37;99489.56;10384255;28;20049;-61
2023/07/05 09:17:50;;;;;;;2.10;0.95;;;;;;;20.41;35.96;99499.97;10385282;28;20060;-60
2023/07/05 09:22:54;;;;;;;1.27;0.93;;;;;;;20.41;36.12;99502.63;10385411;28;20144;-60
2023/07/05 09:28:08;;;;;;;1.55;0.75;;;;;;;20.38;36.13;99521.53;10386757;28;20084;-60
2023/07/05 09:33:18;;;;;;;1.38;0.88;;;;;;;21.04;35.29;99516.94;10383889;28;20069;-60
2023/07/05 09:38:29;;;;;;;1.27;0.88;;;;;;;20.96;35.42;99526.75;10386917;28;21205;-60
2023/07/05 09:43:34;;;;;;;3.17;0.90;;;;;;;20.11;36.42;99529.78;10383931;28;20132;-62
2023/07/05 09:48:42;;;;;;;1.42;0.70;;;;;;;20.16;36.40;99543.41;10384391;28;20055;-60
2023/07/05 09:53:49;;;;;;;2.03;0.70;;;;;;;20.45;36.38;99556.25;10385723;28;20065;-59
2023/07/05 09:58:51;;;;;;;0.95;0.80;;;;;;;20.79;35.91;99546.34;10385704;28;20045;-60
2023/07/05 10:03:57;;;;;;;2.33;0.73;;;;;;;21.03;35.44;99555.16;10382847;28;20561;-59
2023/07/05 10:09:14;;;;;;;1.08;0.60;;;;;;;21.02;34.41;99553.50;10384690;28;20056;-60
2023/07/05 10:14:19;;;;;;;1.88;0.90;;;;;;;21.42;34.86;99559.78;10380942;28;20065;-60
2023/07/05 10:19:29;;;;;;;0.60;0.60;;;;;;;21.99;33.35;99569.25;10384293;28;20063;-60
2023/07/05 10:24:44;;;;;;;2.97;0.90;;;;;;;21.77;32.54;99570.00;10380139;28;20404;-60
2023/07/05 10:29:48;;;;;;;1.92;0.90;;;;;;;22.43;32.91;99578.38;10384045;28;20072;-60
2023/07/05 10:34:51;;;;;;;1.65;0.95;;;;;;;22.72;33.14;99590.22;10380260;28;20155;-60
2023/07/05 10:39:55;;;;;;;1.63;0.70;;;;;;;22.87;32.44;99575.13;10378672;28;20715;-60
2023/07/05 10:45:00;;;;;;;1.15;0.95;;;;;;;22.53;32.38;99589.66;10384878;28;20152;-60
2023/07/05 10:50:05;;;;;;;1.27;0.80;;;;;;;22.07;31.85;99598.53;10387965;28;20498;-60
2023/07/05 10:55:19;;;;;;;2.08;1.13;;;;;;;21.95;31.88;99586.56;10381846;28;20049;-60
2023/07/05 11:00:39;;;;;;;2.28;0.80;;;;;;;21.75;32.64;99587.97;10381478;28;20076;-60
2023/07/05 11:05:46;;;;;;;0.95;0.80;;;;;;;21.75;31.47;99590.66;10382281;28;20049;-60
2023/07/05 11:10:49;;;;;;;1.33;0.70;;;;;;;22.04;31.57;99582.09;10383494;28;20041;-59
2023/07/05 11:15:51;;;;;;;1.35;0.70;;;;;;;22.18;31.03;99582.19;10382417;28;20057;-59
2023/07/05 11:20:59;;;;;;;1.15;0.70;;;;;;;21.78;32.03;99606.28;10378583;28;20045;-60
2023/07/05 11:26:04;;;;;;;1.13;0.88;;;;;;;22.05;31.20;99600.53;10380926;28;20103;-59
2023/07/05 11:31:27;;;;;;;1.20;0.93;;;;;;;22.15;31.22;99603.84;10383109;28;20053;-60
2023/07/05 11:36:31;;;;;;;1.88;1.00;;;;;;;22.21;31.17;99619.13;10378200;28;20041;-60
2023/07/05 11:41:34;;;;;;;1.00;0.70;;;;;;;22.47;30.57;99601.03;10381813;28;20049;-60
2023/07/05 11:46:48;;;;;;;6.00;0.80;;;;;;;22.26;29.44;99590.16;10381515;28;20045;-60
2023/07/05 11:52:19;;;;;;;1.45;1.13;;;;;;;22.30;30.23;99604.78;10381188;28;20104;-60
2023/07/05 11:57:22;;;;;;;1.08;0.80;;;;;;;22.59;29.37;99594.28;10381244;28;20688;-59
2023/07/05 12:02:36;;;;;;;2.15;0.80;;;;;;;23.09;28.96;99607.09;10379972;28;20448;-59
2023/07/05 12:07:40;;;;;;;1.77;0.98;;;;;;;22.63;30.02;99616.09;10394377;28;21456;-59
2023/07/05 12:12:42;;;;;;;0.73;0.60;;;;;;;23.16;29.90;99615.22;10381625;28;20052;-60
2023/07/05 12:17:46;;;;;;;1.98;1.00;;;;;;;22.21;30.40;99628.97;10379538;28;20046;-60
2023/07/05 12:22:48;;;;;;;1.40;0.85;;;;;;;21.93;30.72;99644.50;10380862;28;20048;-60
2023/07/05 12:27:51;;;;;;;1.02;0.77;;;;;;;22.15;31.02;99632.31;10380473;28;20052;-59
2023/07/05 12:32:56;;;;;;;1.42;0.85;;;;;;;22.16;30.06;99642.81;10380030;28;20563;-59
2023/07/05 12:38:00;;;;;;;2.88;1.10;;;;;;;22.05;31.02;99637.03;10398895;28;20520;-59
2023/07/05 12:43:05;;;;;;;0.88;0.77;;;;;;;22.08;30.50;99632.19;10386912;28;20045;-59
2023/07/05 12:48:20;;;;;;;3.22;0.90;;;;;;;22.49;30.09;99625.66;10388115;28;20128;-59
2023/07/05 12:53:23;;;;;;;1.67;0.65;;;;;;;22.65;30.48;99620.25;10386191;28;20072;-60
2023/07/05 12:58:27;;;;;;;1.63;0.98;;;;;;;22.46;29.16;99609.19;10386393;28;20170;-60
2023/07/05 13:03:31;;;;;;;1.52;0.80;;;;;;;22.61;29.85;99613.59;10384865;28;20053;-60
2023/07/05 13:08:33;;;;;;;2.47;1.67;;;;;;;23.03;29.57;99621.16;10386364;28;20037;-60
2023/07/05 13:13:36;;;;;;;1.83;0.88;;;;;;;22.67;28.65;99612.91;10386178;28;20053;-60
2023/07/05 13:18:38;;;;;;;1.95;0.80;;;;;;;22.44;29.41;99637.84;10385666;28;20053;-60
2023/07/05 13:23:47;;;;;;;0.70;0.60;;;;;;;22.41;29.59;99628.34;10386799;28;20045;-59
2023/07/05 13:28:49;;;;;;;1.92;0.75;;;;;;;22.88;29.64;99622.13;10386053;28;20547;-60
2023/07/05 13:33:58;;;;;;;0.82;0.75;;;;;;;23.06;28.66;99617.31;10384117;28;20053;-59
2023/07/05 13:39:00;;;;;;;2.35;1.63;;;;;;;22.94;29.21;99608.91;10384043;28;20049;-60
2023/07/05 13:44:03;;;;;;;1.52;0.95;;;;;;;22.76;29.54;99604.88;10385693;28;20057;-60
2023/07/05 13:49:05;;;;;;;2.25;1.08;;;;;;;22.31;30.06;99618.94;10386898;28;20052;-60
2023/07/05 13:54:10;;;;;;;1.58;0.73;;;;;;;22.64;29.60;99610.56;10385052;28;20568;-59
2023/07/05 13:59:17;;;;;;;7.28;1.75;;;;;;;22.99;29.19;99609.19;10384751;28;21222;-59
2023/07/05 14:04:19;;;;;;;3.10;0.82;;;;;;;23.20;29.10;99603.19;10381928;28;20051;-60
2023/07/05 14:09:21;;;;;;;2.38;1.00;;;;;;;22.97;29.02;99613.03;10381346;28;20382;-60
2023/07/05 14:14:23;;;;;;;1.25;0.85;;;;;;;23.27;28.54;99601.44;10384841;28;20044;-60
2023/07/05 14:19:25;;;;;;;1.90;0.95;;;;;;;23.59;28.76;99606.53;10383395;28;20072;-60
2023/07/05 14:24:27;;;;;;;0.90;0.70;;;;;;;23.43;28.82;99615.50;10384658;28;20167;-60
2023/07/05 14:29:30;;;;;;;2.03;0.95;;;;;;;22.79;29.29;99609.84;10382685;28;21034;-59
2023/07/05 14:34:33;;;;;;;1.10;0.63;;;;;;;22.98;29.15;99612.88;10368136;28;20136;-60
2023/07/05 14:39:36;;;;;;;2.13;0.90;;;;;;;22.98;29.08;99612.03;10381791;28;20069;-59
2023/07/05 14:44:37;;;;;;;1.00;0.60;;;;;;;23.30;29.08;99614.44;10382307;28;20247;-60
2023/07/05 14:49:39;;;;;;;1.63;1.00;;;;;;;23.12;28.92;99609.44;10381782;28;20144;-59
2023/07/05 14:54:41;;;;;;;1.48;0.90;;;;;;;22.86;29.48;99614.28;10380228;28;20132;-59
2023/07/05 14:59:43;;;;;;;1.60;0.93;;;;;;;22.52;29.62;99621.81;10398190;28;20136;-60
2023/07/05 15:04:45;;;;;;;1.52;0.70;;;;;;;22.39;29.89;99624.22;10383285;28;20132;-60
2023/07/05 15:09:47;;;;;;;2.15;1.30;;;;;;;22.43;29.86;99625.53;10381715;28;20095;-60
2023/07/05 15:14:50;;;;;;;1.33;0.90;;;;;;;22.51;29.74;99626.31;10378889;28;20142;-60
2023/07/05 15:19:52;;;;;;;2.50;0.98;;;;;;;22.24;30.23;99629.44;10378761;28;20089;-60
2023/07/05 15:24:54;;;;;;;1.05;0.77;;;;;;;22.26;30.16;99639.91;10376524;28;20857;-60
2023/07/05 15:29:56;;;;;;;1.25;0.80;;;;;;;22.28;30.43;99635.25;10376583;28;20071;-60
2023/07/05 15:34:58;;;;;;;1.67;0.68;;;;;;;22.15;30.68;99633.13;10379303;28;20868;-60
2023/07/05 15:40:04;;;;;;;1.73;0.90;;;;;;;22.17;30.82;99640.97;10378545;28;20128;-60
2023/07/05 15:45:07;;;;;;;2.00;0.95;;;;;;;22.03;31.25;99650.50;10380503;28;20251;-60
2023/07/05 15:50:15;;;;;;;2.45;1.00;;;;;;;21.84;31.29;99641.03;10377439;28;20045;-60
2023/07/05 15:55:17;;;;;;;1.88;0.93;;;;;;;21.88;31.38;99644.19;10379869;28;20046;-60
2023/07/05 16:00:28;;;;;;;1.83;1.10;;;;;;;21.84;31.67;99645.53;10361189;28;20060;-60
2023/07/05 16:05:32;;;;;;;2.55;0.90;;;;;;;21.96;31.49;99649.50;10380285;28;20052;-60
2023/07/05 16:10:38;;;;;;;2.35;1.08;;;;;;;21.80;31.61;99639.69;10381724;28;20136;-60
2023/07/05 16:15:40;;;;;;;1.88;0.90;;;;;;;21.76;31.74;99648.22;10386718;28;20049;-60
2023/07/05 16:20:42;;;;;;;1.88;0.93;;;;;;;21.47;31.93;99647.91;10385566;28;20830;-60
2023/07/05 16:25:44;;;;;;;2.33;1.20;;;;;;;21.31;32.16;99659.38;10390184;28;21156;-60
2023/07/05 16:30:46;;;;;;;1.83;1.10;;;;;;;21.30;32.75;99678.16;10385217;28;20607;-60
2023/07/05 16:35:56;;;;;;;2.17;0.90;;;;;;;21.15;33.38;99707.22;10384000;28;20956;-60
2023/07/05 16:40:59;;;;;;;2.47;1.10;;;;;;;20.71;35.33;99717.28;10386283;28;20367;-60
2023/07/05 16:46:02;;;;;;;2.47;1.00;;;;;;;20.36;36.45;99729.91;10388429;28;20115;-60
2023/07/05 16:51:05;;;;;;;1.63;0.88;;;;;;;19.85;37.65;99736.03;10383086;28;20188;-60
2023/07/05 16:56:08;;;;;;;2.30;1.10;;;;;;;19.94;37.67;99754.53;10380291;28;20180;-60
2023/07/05 17:01:13;;;;;;;4.47;1.20;;;;;;;20.01;38.64;99752.09;10381600;28;20904;-60
2023/07/05 17:06:15;;;;;;;1.17;0.85;;;;;;;20.10;39.04;99744.00;10389254;28;20164;-60
2023/07/05 17:11:18;;;;;;;1.98;1.00;;;;;;;20.17;39.55;99749.53;10372274;28;20037;-60
2023/07/05 17:16:21;;;;;;;1.95;0.90;;;;;;;20.21;40.16;99756.19;10388252;28;20445;-60
2023/07/05 17:21:23;;;;;;;1.75;0.98;;;;;;;20.19;40.10;99745.72;10390999;28;20514;-60
2023/07/05 17:26:25;;;;;;;1.60;0.95;;;;;;;20.21;40.37;99754.34;10387035;28;20041;-60
2023/07/05 17:31:27;;;;;;;1.08;0.80;;;;;;;20.20;40.24;99754.53;10388115;28;20076;-60
2023/07/05 17:36:29;;;;;;;0.98;0.80;;;;;;;20.15;40.41;99752.31;10387346;28;20175;-60
2023/07/05 17:41:32;;;;;;;2.90;1.10;;;;;;;20.10;40.29;99753.78;10388047;28;20248;-60
2023/07/05 17:46:40;;;;;;;1.23;0.90;;;;;;;20.20;40.42;99754.53;10388707;28;20107;-60
2023/07/05 17:51:42;;;;;;;1.30;0.90;;;;;;;20.17;40.00;99760.16;10388483;28;20051;-60
2023/07/05 17:56:44;;;;;;;0.95;0.70;;;;;;;19.96;39.44;99765.81;10386703;28;20052;-60
2023/07/05 18:01:46;;;;;;;2.75;1.10;;;;;;;19.93;39.26;99762.66;10378024;28;20053;-60
2023/07/05 18:06:48;;;;;;;1.27;0.85;;;;;;;19.85;38.83;99758.09;10385456;28;20061;-59
2023/07/05 18:11:52;;;;;;;2.20;0.80;;;;;;;19.86;38.58;99775.72;10380549;28;20434;-60
2023/07/05 18:16:54;;;;;;;1.08;0.73;;;;;;;19.78;38.27;99777.44;10378413;28;20045;-59
2023/07/05 18:21:56;;;;;;;1.17;0.80;;;;;;;19.80;38.13;99783.41;10376680;28;20058;-59
2023/07/05 18:26:59;;;;;;;1.67;0.88;;;;;;;19.80;37.94;99791.38;10379002;28;20124;-59
2023/07/05 18:32:01;;;;;;;1.60;0.88;;;;;;;19.68;38.04;99800.56;10378222;28;20123;-60
2023/07/05 18:37:05;;;;;;;1.25;0.80;;;;;;;19.57;38.04;99803.44;10382350;28;20521;-59
2023/07/05 18:42:08;;;;;;;2.40;1.25;;;;;;;19.48;38.51;99819.28;10381537;28;20076;-59
2023/07/05 18:47:10;;;;;;;0.77;0.75;;;;;;;19.22;39.91;99834.25;10378455;28;20710;-59
2023/07/05 18:52:12;;;;;;;0.85;0.68;;;;;;;18.37;45.59;99843.38;10380754;28;20073;-59
2023/07/05 18:57:14;;;;;;;1.63;0.98;;;;;;;17.91;45.12;99832.69;10382603;28;20088;-59
2023/07/05 19:02:16;;;;;;;0.80;0.80;;;;;;;17.70;47.31;99828.38;10383871;28;20079;-59
2023/07/05 19:07:18;;;;;;;0.70;0.70;;;;;;;17.45;47.19;99823.63;10378183;28;20049;-59
2023/07/05 19:12:20;;;;;;;0.98;0.80;;;;;;;17.33;47.69;99831.78;10375279;28;20038;-59
2023/07/05 19:17:23;;;;;;;1.48;0.95;;;;;;;17.31;48.11;99831.06;10377195;28;20100;-59
2023/07/05 19:22:28;;;;;;;1.25;1.10;;;;;;;17.29;47.92;99833.03;10365549;28;20052;-58
2023/07/05 19:27:31;;;;;;;0.80;0.80;;;;;;;17.21;47.85;99844.28;10374916;28;20558;-58
2023/07/05 19:32:33;;;;;;;1.88;0.93;;;;;;;17.17;48.14;99842.03;10374148;28;20046;-59
2023/07/05 19:37:36;;;;;;;0.90;0.70;;;;;;;17.25;48.00;99850.97;10380598;28;20050;-58
2023/07/05 19:42:38;;;;;;;2.33;1.00;;;;;;;17.28;47.58;99861.25;10378452;28;20192;-58
2023/07/05 19:47:40;;;;;;;1.13;0.77;;;;;;;17.16;48.00;99858.88;10377448;28;20584;-58
2023/07/05 19:52:42;;;;;;;1.50;1.10;;;;;;;17.04;48.08;99861.63;10378729;28;20041;-58
2023/07/05 19:57:47;;;;;;;2.03;1.05;;;;;;;17.06;47.83;99868.59;10376750;28;20038;-58
2023/07/05 20:02:49;;;;;;;1.35;0.75;;;;;;;17.07;47.89;99867.59;10382491;28;20152;-58
2023/07/05 20:07:51;;;;;;;1.50;0.90;;;;;;;17.10;47.92;99878.72;10380173;28;20140;-58
2023/07/05 20:12:53;;;;;;;1.48;0.80;;;;;;;17.25;48.06;99874.75;10377117;28;20223;-58
2023/07/05 20:17:55;;;;;;;2.10;1.02;;;;;;;17.26;48.33;99873.75;10380738;28;20497;-58
2023/07/05 20:22:57;;;;;;;2.17;0.90;;;;;;;17.19;48.19;99880.59;10379706;28;20072;-58
2023/07/05 20:27:59;;;;;;;2.08;0.80;;;;;;;17.21;48.19;99878.63;10377640;28;20054;-58
2023/07/05 20:33:02;;;;;;;1.75;1.00;;;;;;;17.21;48.34;99881.28;10378234;28;20506;-58
2023/07/05 20:38:04;;;;;;;3.53;1.10;;;;;;;17.20;48.42;99884.88;10378477;28;20463;-59
2023/07/05 20:43:06;;;;;;;1.35;0.77;;;;;;;17.09;48.47;99887.66;10377145;28;20045;-57
2023/07/05 20:48:09;;;;;;;1.58;0.73;;;;;;;16.97;48.66;99896.63;10377702;28;20054;-59
2023/07/05 20:53:11;;;;;;;2.40;0.88;;;;;;;16.90;48.85;99896.31;10378624;28;20164;-59
2023/07/05 20:58:15;;;;;;;1.30;0.90;;;;;;;16.80;49.02;99911.28;10382459;28;20046;-58
2023/07/05 21:03:19;;;;;;;2.03;1.00;;;;;;;16.74;49.26;99910.97;10384576;28;20543;-59
2023/07/05 21:08:21;;;;;;;0.90;0.90;;;;;;;16.56;49.44;99916.03;10386818;28;20053;-58
2023/07/05 21:13:23;;;;;;;1.70;0.80;;;;;;;16.45;49.75;99909.97;10385626;28;20049;-58
2023/07/05 21:18:25;;;;;;;0.82;0.80;;;;;;;16.32;50.39;99912.78;10384578;28;20046;-58
2023/07/05 21:23:29;;;;;;;1.55;1.00;;;;;;;16.26;50.53;99915.94;10385542;28;20413;-58
2023/07/05 21:28:32;;;;;;;2.00;1.00;;;;;;;16.12;50.87;99917.06;10384424;28;20090;-58
2023/07/05 21:33:35;;;;;;;1.58;0.90;;;;;;;15.98;51.49;99916.53;10400784;28;20452;-58
2023/07/05 21:38:37;;;;;;;1.92;0.90;;;;;;;15.86;51.49;99914.88;10386286;28;20042;-59
2023/07/05 21:43:40;;;;;;;1.80;0.70;;;;;;;15.71;52.13;99917.00;10385266;28;20049;-58
2023/07/05 21:48:42;;;;;;;1.92;1.10;;;;;;;15.66;52.31;99915.69;10385606;28;20078;-58
2023/07/05 21:53:45;;;;;;;2.28;1.10;;;;;;;15.74;52.52;99914.09;10385615;28;20045;-58
2023/07/05 21:58:47;;;;;;;1.73;1.20;;;;;;;15.70;52.73;99920.59;10386220;28;20485;-58
2023/07/05 22:03:49;;;;;;;4.28;1.33;;;;;;;15.83;52.54;99925.69;10385641;28;20468;-58
2023/07/05 22:08:54;;;;;;;1.25;0.82;;;;;;;15.88;52.17;99927.00;10385042;28;20045;-58
2023/07/05 22:13:56;;;;;;;3.25;1.20;;;;;;;15.93;51.88;99930.09;10385914;28;20042;-58
2023/07/05 22:19:00;;;;;;;1.67;1.00;;;;;;;15.87;52.39;99940.31;10384397;28;20054;-58
2023/07/05 22:24:02;;;;;;;1.25;1.15;;;;;;;15.95;52.28;99933.47;10385645;28;20207;-58
2023/07/05 22:29:04;;;;;;;1.92;1.13;;;;;;;16.09;51.77;99938.44;10385777;28;20111;-58
2023/07/05 22:34:06;;;;;;;3.05;1.27;;;;;;;16.11;51.72;99933.03;10383986;28;20156;-58
2023/07/05 22:39:09;;;;;;;2.13;1.00;;;;;;;16.21;51.31;99941.84;10384098;28;20077;-58
2023/07/05 22:44:11;;;;;;;1.20;0.82;;;;;;;16.23;51.59;99940.78;10383166;28;20144;-59
2023/07/05 22:49:13;;;;;;;1.58;1.20;;;;;;;16.24;51.53;99936.34;10383911;28;20160;-58
2023/07/05 22:54:15;;;;;;;1.95;1.05;;;;;;;16.32;51.04;99933.91;10383257;28;20099;-58
2023/07/05 22:59:17;;;;;;;2.45;1.00;;;;;;;16.35;50.89;99948.63;10383730;28;20072;-59
2023/07/05 23:04:19;;;;;;;4.60;1.25;;;;;;;16.32;51.33;99941.81;10385180;28;20104;-58
2023/07/05 23:09:21;;;;;;;1.20;1.00;;;;;;;16.26;51.33;99949.41;10385151;28;20117;-58
2023/07/05 23:14:23;;;;;;;1.65;1.15;;;;;;;16.20;51.48;99963.94;10382677;28;20056;-58
2023/07/05 23:19:26;;;;;;;2.15;1.08;;;;;;;16.23;51.45;99959.25;10383648;28;20128;-58
2023/07/05 23:24:29;;;;;;;0.95;0.90;;;;;;;16.33;51.34;99964.59;10380374;28;20476;-57
2023/07/05 23:29:31;;;;;;;2.10;1.02;;;;;;;16.26;51.41;99965.22;10383169;28;20480;-57
2023/07/05 23:34:33;;;;;;;1.85;1.10;;;;;;;16.25;51.28;99967.03;10382657;28;20113;-58